Time;durP1;ratioP1;P1;durP2;ratioP2;P2;SDS_P1;SDS_P2;PMS_P1;PMS_P2;Temp;Humidity;BMP_temperature;BMP_pressure;BME280_temperature;BME280_humidity;BME280_pressure;Samples;Min_cycle;Max_cycle;Signal;HPM_P1;HPM_P2
2023/05/19 00:01:20;;;;;;;6.13;3.77;;;9.10;99.90;;;;;;5061177;28;20199;-68
2023/05/19 00:03:52;;;;;;;5.77;3.70;;;9.10;99.90;;;;;;5087808;28;20238;-68
2023/05/19 00:06:24;;;;;;;9.57;3.60;;;9.10;99.90;;;;;;5081725;28;20445;-68
2023/05/19 00:08:56;;;;;;;5.70;3.70;;;9.00;99.90;;;;;;5070136;28;20669;-69
2023/05/19 00:11:25;;;;;;;7.60;3.83;;;9.00;99.90;;;;;;5067355;28;20240;-68
2023/05/19 00:13:54;;;;;;;9.30;4.20;;;9.00;99.90;;;;;;5087503;28;20236;-69
2023/05/19 00:16:23;;;;;;;9.90;3.57;;;9.00;99.90;;;;;;5087550;28;20194;-68
2023/05/19 00:18:52;;;;;;;8.23;3.50;;;8.90;99.90;;;;;;5063895;28;20528;-68
2023/05/19 00:21:19;;;;;;;6.07;3.73;;;8.90;99.90;;;;;;5061095;28;20269;-69
2023/05/19 00:23:46;;;;;;;8.40;3.97;;;8.90;99.90;;;;;;5083490;28;20187;-69
2023/05/19 00:26:14;;;;;;;6.23;3.37;;;8.80;99.90;;;;;;5067717;28;20210;-68
2023/05/19 00:28:51;;;;;;;8.93;3.67;;;8.80;99.90;;;;;;5076445;28;20185;-70
2023/05/19 00:31:19;;;;;;;8.03;3.63;;;8.80;99.90;;;;;;5084014;28;20219;-69
2023/05/19 00:33:46;;;;;;;7.10;3.67;;;8.70;99.90;;;;;;5082982;28;20205;-69
2023/05/19 00:36:13;;;;;;;6.17;3.40;;;8.70;99.90;;;;;;5081264;28;20190;-71
2023/05/19 00:38:40;;;;;;;7.80;3.63;;;8.70;99.90;;;;;;5061264;28;20450;-71
2023/05/19 00:41:07;;;;;;;7.43;3.83;;;8.60;99.90;;;;;;5079744;28;20205;-71
2023/05/19 00:43:34;;;;;;;7.50;3.67;;;8.60;99.90;;;;;;5060774;28;20304;-71
2023/05/19 00:46:02;;;;;;;5.80;4.07;;;8.60;99.90;;;;;;5087600;28;20703;-70
2023/05/19 00:48:29;;;;;;;7.20;4.23;;;8.60;99.90;;;;;;5063844;28;20567;-71
2023/05/19 00:51:02;;;;;;;9.57;3.80;;;8.60;99.90;;;;;;5069168;28;20690;-70
2023/05/19 00:53:32;;;;;;;5.53;3.83;;;8.50;99.90;;;;;;5060666;28;20285;-70
2023/05/19 00:56:00;;;;;;;9.47;4.00;;;8.50;99.90;;;;;;5087351;28;20601;-70
2023/05/19 00:58:29;;;;;;;8.20;4.03;;;8.50;99.90;;;;;;5057747;28;20281;-71
2023/05/19 01:01:06;;;;;;;6.93;3.47;;;8.40;99.90;;;;;;5063928;28;20197;-68
2023/05/19 01:03:34;;;;;;;6.33;3.73;;;8.40;99.90;;;;;;5081925;23;21194;-71
2023/05/19 01:06:05;;;;;;;6.67;4.17;;;8.40;99.90;;;;;;5054542;28;20202;-69
2023/05/19 01:08:35;;;;;;;8.07;4.17;;;8.30;99.90;;;;;;5052609;28;20195;-68
2023/05/19 01:11:03;;;;;;;7.40;4.10;;;8.30;99.90;;;;;;5047294;28;20722;-67
2023/05/19 01:13:31;;;;;;;7.70;4.40;;;8.30;99.90;;;;;;5048272;28;20198;-70
2023/05/19 01:16:17;;;;;;;6.70;4.50;;;8.20;99.90;;;;;;5046383;28;20580;-69
2023/05/19 01:19:00;;;;;;;9.17;4.30;;;8.20;99.90;;;;;;5064199;28;20203;-69
2023/05/19 01:21:35;;;;;;;10.67;4.37;;;8.20;99.90;;;;;;5041858;28;20192;-68
2023/05/19 01:24:33;;;;;;;7.80;4.87;;;8.10;99.90;;;;;;5049644;28;20200;-69
2023/05/19 01:27:42;;;;;;;10.23;4.67;;;8.00;99.90;;;;;;5040168;28;20210;-70
2023/05/19 01:30:25;;;;;;;7.53;4.13;;;8.00;99.90;;;;;;5028511;28;20696;-70
2023/05/19 01:32:58;;;;;;;12.43;5.00;;;8.00;99.90;;;;;;5060268;28;20187;-69
2023/05/19 01:35:27;;;;;;;7.33;4.10;;;8.00;99.90;;;;;;5051453;28;20547;-69
2023/05/19 01:37:57;;;;;;;8.87;5.17;;;8.00;99.90;;;;;;5055247;28;20187;-69
2023/05/19 01:40:25;;;;;;;9.90;4.60;;;7.90;99.90;;;;;;5064911;28;20191;-66
2023/05/19 01:42:55;;;;;;;9.33;5.00;;;7.90;99.90;;;;;;5029790;28;20277;-66
2023/05/19 01:45:26;;;;;;;9.27;4.53;;;7.90;99.90;;;;;;5060251;28;20832;-69
2023/05/19 01:47:56;;;;;;;7.70;4.47;;;7.80;99.90;;;;;;5049510;28;20219;-68
2023/05/19 01:50:26;;;;;;;9.83;5.10;;;7.80;99.90;;;;;;5063728;28;20214;-70
2023/05/19 01:52:54;;;;;;;10.17;4.40;;;7.80;99.90;;;;;;5062776;28;20250;-72
2023/05/19 01:55:24;;;;;;;6.43;4.10;;;7.80;99.90;;;;;;5038617;28;20203;-68
2023/05/19 01:57:51;;;;;;;9.77;5.33;;;7.70;99.90;;;;;;5049355;28;20207;-70
2023/05/19 02:00:50;;;;;;;9.73;5.27;;;7.70;99.90;;;;;;5041788;28;20269;-68
2023/05/19 02:03:35;;;;;;;7.27;4.47;;;7.60;99.90;;;;;;5037019;28;20230;-66
2023/05/19 02:06:26;;;;;;;8.93;6.00;;;7.60;99.90;;;;;;5049686;28;20222;-66
2023/05/19 02:08:59;;;;;;;17.50;7.93;;;7.50;99.90;;;;;;5050095;28;20199;-66
2023/05/19 02:11:46;;;;;;;13.10;7.90;;;7.50;99.90;;;;;;5039751;28;20210;-67
2023/05/19 02:14:28;;;;;;;9.23;6.57;;;7.50;99.90;;;;;;5033901;28;20208;-66
2023/05/19 02:16:58;;;;;;;9.17;5.90;;;7.50;99.90;;;;;;5035753;28;20200;-70
2023/05/19 02:19:32;;;;;;;9.93;5.50;;;7.50;99.90;;;;;;5028304;28;20196;-68
2023/05/19 02:21:59;;;;;;;7.30;5.20;;;7.50;99.90;;;;;;5035626;28;20208;-68
2023/05/19 02:24:26;;;;;;;9.93;5.67;;;7.40;99.90;;;;;;5038240;28;20256;-68
2023/05/19 02:26:53;;;;;;;8.53;4.90;;;7.40;99.90;;;;;;5039037;28;20227;-67
2023/05/19 02:29:20;;;;;;;7.80;5.00;;;7.40;99.90;;;;;;5032496;28;20196;-68
2023/05/19 02:31:49;;;;;;;8.47;5.10;;;7.30;99.90;;;;;;5028075;28;20196;-69
2023/05/19 02:34:18;;;;;;;11.93;4.90;;;7.30;99.90;;;;;;5029774;28;20831;-67
2023/05/19 02:36:48;;;;;;;9.20;5.43;;;7.30;99.90;;;;;;5038933;28;20208;-67
2023/05/19 02:39:15;;;;;;;8.80;5.57;;;7.30;99.90;;;;;;5031187;28;20192;-67
2023/05/19 02:41:42;;;;;;;9.17;7.93;;;7.30;99.90;;;;;;5030211;28;20219;-68
2023/05/19 02:44:09;;;;;;;11.67;9.30;;;7.30;99.90;;;;;;5035131;28;20199;-67
2023/05/19 02:46:36;;;;;;;8.00;6.27;;;7.20;99.90;;;;;;5036781;28;20767;-66
2023/05/19 02:49:04;;;;;;;6.27;5.30;;;7.20;99.90;;;;;;5048395;28;20207;-66
2023/05/19 02:51:31;;;;;;;7.10;5.47;;;7.20;99.90;;;;;;5035605;28;20875;-67
2023/05/19 02:53:58;;;;;;;11.33;5.60;;;7.20;99.90;;;;;;5040344;28;20219;-68
2023/05/19 02:56:25;;;;;;;8.33;4.90;;;7.20;99.90;;;;;;5038631;28;20215;-67
2023/05/19 02:58:53;;;;;;;11.80;5.60;;;7.10;99.90;;;;;;5034340;28;20916;-67
2023/05/19 03:01:21;;;;;;;7.17;4.87;;;7.10;99.90;;;;;;5036490;28;20246;-68
2023/05/19 03:03:52;;;;;;;8.70;5.37;;;7.10;99.90;;;;;;5055691;28;20226;-68
2023/05/19 03:06:22;;;;;;;11.77;6.13;;;7.10;99.90;;;;;;5033815;28;20202;-68
2023/05/19 03:08:50;;;;;;;8.80;5.57;;;7.00;99.90;;;;;;5030566;28;20196;-68
2023/05/19 03:11:17;;;;;;;11.80;6.73;;;7.00;99.90;;;;;;5044359;28;20303;-68
2023/05/19 03:13:44;;;;;;;9.90;6.87;;;6.90;99.90;;;;;;5029519;28;20686;-69
2023/05/19 03:16:11;;;;;;;10.00;8.17;;;6.90;99.90;;;;;;5048016;28;20188;-68
2023/05/19 03:18:38;;;;;;;11.23;6.80;;;6.90;99.90;;;;;;5048738;28;20192;-69
2023/05/19 03:21:05;;;;;;;10.77;6.10;;;6.90;99.90;;;;;;5031756;28;20210;-68
2023/05/19 03:23:33;;;;;;;10.63;5.20;;;6.80;99.90;;;;;;5035644;28;20302;-73
2023/05/19 03:26:00;;;;;;;9.47;5.37;;;6.80;99.90;;;;;;5037280;28;20688;-71
2023/05/19 03:28:27;;;;;;;8.40;5.63;;;6.70;99.90;;;;;;5029817;28;20266;-67
2023/05/19 03:30:54;;;;;;;9.80;5.60;;;6.70;99.90;;;;;;5050310;28;20278;-66
2023/05/19 03:33:28;;;;;;;7.87;5.00;;;6.70;99.90;;;;;;5033587;28;20203;-66
2023/05/19 03:35:56;;;;;;;7.93;5.27;;;6.70;99.90;;;;;;5024495;28;20581;-67
2023/05/19 03:38:24;;;;;;;8.30;4.80;;;6.60;99.90;;;;;;5016081;28;20200;-66
2023/05/19 03:40:57;;;;;;;8.00;5.17;;;6.60;99.90;;;;;;5042495;28;20607;-65
2023/05/19 03:43:24;;;;;;;9.47;5.20;;;6.60;99.90;;;;;;5030867;28;20544;-65
2023/05/19 03:45:56;;;;;;;8.53;5.13;;;6.60;99.90;;;;;;5016854;28;20197;-66
2023/05/19 03:48:42;;;;;;;10.47;5.43;;;6.50;99.90;;;;;;5051556;28;20214;-67
2023/05/19 03:51:33;;;;;;;10.43;5.63;;;6.40;99.90;;;;;;5031066;28;20235;-67
2023/05/19 03:54:08;;;;;;;14.03;5.77;;;6.40;99.90;;;;;;5020847;28;20241;-68
2023/05/19 03:56:38;;;;;;;11.70;5.67;;;6.50;99.90;;;;;;5034720;28;20656;-66
2023/05/19 03:59:06;;;;;;;7.80;5.03;;;6.60;99.90;;;;;;5055371;28;20188;-67
2023/05/19 04:01:35;;;;;;;12.70;5.20;;;6.70;99.90;;;;;;5049547;28;20202;-66
2023/05/19 04:04:02;;;;;;;12.37;5.17;;;6.80;99.90;;;;;;5031923;28;20239;-65
2023/05/19 04:06:29;;;;;;;10.70;5.47;;;6.90;99.90;;;;;;5023730;28;20197;-67
2023/05/19 04:08:58;;;;;;;7.67;4.97;;;7.00;99.90;;;;;;5011557;28;20191;-68
2023/05/19 04:11:25;;;;;;;9.13;5.30;;;7.00;99.90;;;;;;5029450;28;20202;-68
2023/05/19 04:13:52;;;;;;;9.47;5.70;;;7.10;99.90;;;;;;5028632;28;22097;-66
2023/05/19 04:16:20;;;;;;;9.13;5.30;;;7.20;99.90;;;;;;5022671;28;20198;-66
2023/05/19 04:18:47;;;;;;;9.43;5.43;;;7.30;99.90;;;;;;5032444;28;20204;-65
2023/05/19 04:21:14;;;;;;;8.13;5.10;;;7.40;99.90;;;;;;5036208;28;20187;-66
2023/05/19 04:23:41;;;;;;;6.30;4.60;;;7.50;99.90;;;;;;5050622;28;20195;-66
2023/05/19 04:26:09;;;;;;;9.30;5.40;;;7.70;99.90;;;;;;5020082;28;20675;-65
2023/05/19 04:28:38;;;;;;;6.60;4.47;;;8.30;99.90;;;;;;5045397;28;22040;-65
2023/05/19 04:31:09;;;;;;;7.07;4.73;;;9.00;99.90;;;;;;5019997;28;20395;-65
2023/05/19 04:33:37;;;;;;;11.30;6.90;;;9.90;99.90;;;;;;5015440;28;20215;-65
2023/05/19 04:36:09;;;;;;;8.77;5.80;;;10.60;99.90;;;;;;5026365;28;20192;-67
2023/05/19 04:38:38;;;;;;;11.00;5.97;;;11.10;99.90;;;;;;5033388;28;20197;-67
2023/05/19 04:41:11;;;;;;;5.63;4.67;;;11.60;99.90;;;;;;5011879;28;20207;-67
2023/05/19 04:43:40;;;;;;;8.07;4.30;;;12.20;99.90;;;;;;5033677;28;20583;-66
2023/05/19 04:46:09;;;;;;;7.33;3.73;;;12.70;99.90;;;;;;5037050;28;20254;-66
2023/05/19 04:48:40;;;;;;;8.23;3.83;;;13.10;99.90;;;;;;5015562;28;20269;-66
2023/05/19 04:51:07;;;;;;;9.03;4.30;;;13.50;99.90;;;;;;5043533;28;20191;-67
2023/05/19 04:53:35;;;;;;;6.00;3.77;;;13.90;99.90;;;;;;5044282;28;20207;-66
2023/05/19 04:56:05;;;;;;;9.25;4.05;;;14.20;99.90;;;;;;5032779;28;20187;-65
2023/05/19 04:58:32;;;;;;;7.35;3.83;;;14.10;99.90;;;;;;5036489;28;20222;-66
2023/05/19 05:00:59;;;;;;;7.63;3.72;;;14.50;99.90;;;;;;5035109;28;20211;-66
2023/05/19 05:03:29;;;;;;;7.90;4.00;;;15.10;99.90;;;;;;5022336;28;20314;-66
2023/05/19 05:05:57;;;;;;;5.95;3.45;;;15.60;99.90;;;;;;5031319;28;20192;-66
2023/05/19 05:08:24;;;;;;;9.63;3.90;;;16.10;99.90;;;;;;5034346;28;20207;-65
2023/05/19 05:10:53;;;;;;;8.02;3.63;;;16.20;99.90;;;;;;5030192;28;20559;-65
2023/05/19 05:13:22;;;;;;;6.93;3.25;;;16.50;99.90;;;;;;5027426;28;20442;-66
2023/05/19 05:15:51;;;;;;;5.15;3.20;;;16.90;99.90;;;;;;5050515;28;20651;-67
2023/05/19 05:18:21;;;;;;;6.53;3.17;;;17.50;99.90;;;;;;5042353;28;20290;-66
2023/05/19 05:20:48;;;;;;;7.28;3.30;;;18.00;99.90;;;;;;5042860;28;20215;-65
2023/05/19 05:23:16;;;;;;;4.72;2.97;;;18.40;99.90;;;;;;5032189;28;20677;-66
2023/05/19 05:25:46;;;;;;;6.28;3.25;;;18.90;99.90;;;;;;5030569;28;20252;-66
2023/05/19 05:28:14;;;;;;;8.45;3.58;;;19.50;99.90;;;;;;5028996;28;20243;-65
2023/05/19 05:30:43;;;;;;;8.75;3.10;;;19.40;99.90;;;;;;5032524;28;20632;-67
2023/05/19 05:33:12;;;;;;;8.63;2.95;;;19.80;99.90;;;;;;5025778;28;20245;-65
2023/05/19 05:35:40;;;;;;;6.18;3.00;;;20.40;99.90;;;;;;5029354;28;20207;-66
2023/05/19 05:38:10;;;;;;;8.82;3.03;;;20.50;99.90;;;;;;5014670;28;20660;-67
2023/05/19 05:40:38;;;;;;;9.25;3.65;;;20.40;99.90;;;;;;5043179;28;20704;-65
2023/05/19 05:43:05;;;;;;;7.40;3.47;;;19.10;99.90;;;;;;5019190;28;20203;-65
2023/05/19 05:45:37;;;;;;;4.88;2.60;;;19.70;99.90;;;;;;5030922;28;20703;-65
2023/05/19 05:48:06;;;;;;;9.80;3.42;;;20.00;99.90;;;;;;5030099;28;20660;-70
2023/05/19 05:50:34;;;;;;;5.45;2.95;;;20.40;99.90;;;;;;5028504;28;20187;-68
2023/05/19 05:53:02;;;;;;;7.97;3.22;;;20.30;99.90;;;;;;5028541;28;20196;-69
2023/05/19 05:55:29;;;;;;;8.45;3.42;;;19.50;99.90;;;;;;5020528;28;20219;-67
2023/05/19 05:58:00;;;;;;;7.13;2.88;;;19.20;99.90;;;;;;5031072;28;20222;-70
2023/05/19 06:00:28;;;;;;;10.13;3.80;;;19.10;99.90;;;;;;5017475;28;20206;-68
2023/05/19 06:02:55;;;;;;;8.35;3.08;;;19.80;99.90;;;;;;5047271;28;20235;-66
2023/05/19 06:05:25;;;;;;;8.35;3.17;;;21.70;99.90;;;;;;5030057;28;20206;-66
2023/05/19 06:07:53;;;;;;;7.82;3.53;;;21.50;99.90;;;;;;5024922;28;20216;-66
2023/05/19 06:10:24;;;;;;;8.02;2.78;;;21.10;99.90;;;;;;5031341;28;20196;-66
2023/05/19 06:12:53;;;;;;;6.85;2.90;;;21.30;99.90;;;;;;5029410;28;20195;-65
2023/05/19 06:15:21;;;;;;;8.77;2.80;;;21.50;99.90;;;;;;5032790;28;20199;-67
2023/05/19 06:17:53;;;;;;;6.53;2.40;;;22.70;99.90;;;;;;5034158;28;20210;-66
2023/05/19 06:20:21;;;;;;;8.80;2.65;;;23.50;99.90;;;;;;5024989;28;20207;-64
2023/05/19 06:22:48;;;;;;;6.57;3.00;;;24.00;99.90;;;;;;5029550;28;20195;-64
2023/05/19 06:25:17;;;;;;;4.63;2.22;;;23.90;99.90;;;;;;5013590;28;20206;-69
2023/05/19 06:27:45;;;;;;;6.65;2.70;;;22.80;99.90;;;;;;5018306;28;20254;-67
2023/05/19 06:30:13;;;;;;;12.05;2.80;;;21.20;99.90;;;;;;5047728;28;20215;-65
2023/05/19 06:33:04;;;;;;;6.75;2.80;;;21.10;99.90;;;;;;5004671;28;20613;-67
2023/05/19 06:35:31;;;;;;;5.70;2.45;;;21.90;99.90;;;;;;5022110;28;20196;-66
2023/05/19 06:37:59;;;;;;;6.68;2.80;;;21.20;99.90;;;;;;5034021;28;20207;-68
2023/05/19 06:40:26;;;;;;;4.95;2.65;;;21.20;99.90;;;;;;5028968;28;20203;-67
2023/05/19 06:42:53;;;;;;;7.55;3.22;;;22.60;99.90;;;;;;5019190;28;20712;-68
2023/05/19 06:45:30;;;;;;;6.15;2.97;;;22.60;99.90;;;;;;5027294;28;21058;-69
2023/05/19 06:48:00;;;;;;;6.63;2.72;;;21.90;99.90;;;;;;5028447;28;20627;-68
2023/05/19 06:50:28;;;;;;;6.03;2.60;;;22.10;99.90;;;;;;5027551;28;20188;-68
2023/05/19 06:52:56;;;;;;;7.57;2.40;;;22.60;99.90;;;;;;5025169;28;20200;-68
2023/05/19 06:55:23;;;;;;;6.95;2.70;;;22.80;99.90;;;;;;5037640;28;20662;-68
2023/05/19 06:57:50;;;;;;;7.43;2.80;;;24.20;99.90;;;;;;5047689;28;20203;-67
2023/05/19 07:00:19;;;;;;;9.27;2.35;;;25.30;99.90;;;;;;5029763;28;20215;-69
2023/05/19 07:02:51;;;;;;;8.02;2.72;;;25.40;99.90;;;;;;5019320;28;20248;-67
2023/05/19 07:05:18;;;;;;;8.00;2.83;;;23.80;99.90;;;;;;5014974;28;20748;-69
2023/05/19 07:07:50;;;;;;;6.80;2.70;;;23.10;99.90;;;;;;5029186;28;20239;-69
2023/05/19 07:10:21;;;;;;;6.43;2.58;;;23.10;99.90;;;;;;5003744;28;20575;-67
2023/05/19 07:12:49;;;;;;;5.07;2.75;;;23.40;99.90;;;;;;5028041;28;20290;-68
2023/05/19 07:15:17;;;;;;;8.45;2.85;;;24.30;99.90;;;;;;5025426;28;20683;-69
2023/05/19 07:17:45;;;;;;;9.65;2.80;;;26.40;99.90;;;;;;5028136;28;20196;-69
2023/05/19 07:20:12;;;;;;;5.53;2.50;;;26.80;99.90;;;;;;5010327;28;20200;-66
2023/05/19 07:22:39;;;;;;;6.90;2.88;;;27.60;99.90;;;;;;5032341;28;20194;-66
2023/05/19 07:25:07;;;;;;;7.43;2.55;;;26.50;99.90;;;;;;5044994;28;20579;-66
2023/05/19 07:27:35;;;;;;;7.32;2.72;;;26.90;99.90;;;;;;5014721;28;20673;-67
2023/05/19 07:30:03;;;;;;;5.53;2.20;;;27.30;99.90;;;;;;5050054;28;20192;-66
2023/05/19 07:32:30;;;;;;;8.45;2.53;;;27.80;99.90;;;;;;5044475;28;20198;-66
2023/05/19 07:34:57;;;;;;;7.20;3.03;;;27.30;99.90;;;;;;5047309;28;20188;-67
2023/05/19 07:37:25;;;;;;;8.15;2.40;;;26.20;99.90;;;;;;5047572;28;20204;-67
2023/05/19 07:39:52;;;;;;;5.63;2.45;;;26.10;99.90;;;;;;5026712;28;20295;-69
2023/05/19 07:42:19;;;;;;;7.10;2.30;;;24.90;99.90;;;;;;5047272;28;20187;-69
2023/05/19 07:44:46;;;;;;;4.55;2.63;;;23.50;99.90;;;;;;5032824;28;20192;-70
2023/05/19 07:47:13;;;;;;;4.97;2.40;;;24.10;99.90;;;;;;5026788;28;20271;-68
2023/05/19 07:49:40;;;;;;;5.40;2.38;;;24.80;99.90;;;;;;5027560;28;20214;-69
2023/05/19 07:52:07;;;;;;;5.38;2.58;;;24.60;99.90;;;;;;5012830;28;20709;-70
2023/05/19 07:54:34;;;;;;;4.32;2.60;;;24.80;99.90;;;;;;5038098;28;20780;-69
2023/05/19 07:57:01;;;;;;;5.97;2.55;;;24.50;99.90;;;;;;5027266;28;20229;-70
2023/05/19 07:59:28;;;;;;;7.40;2.63;;;24.90;99.90;;;;;;5011392;28;20199;-70
2023/05/19 08:01:55;;;;;;;5.15;2.65;;;24.30;99.90;;;;;;5041620;28;20677;-67
2023/05/19 08:04:22;;;;;;;6.45;2.20;;;25.60;99.90;;;;;;5045265;28;20585;-71
2023/05/19 08:06:51;;;;;;;5.18;2.30;;;27.50;99.90;;;;;;5030402;28;20245;-70
2023/05/19 08:09:18;;;;;;;9.77;2.70;;;26.10;99.90;;;;;;5044776;28;20211;-70
2023/05/19 08:11:46;;;;;;;8.18;2.17;;;25.60;99.90;;;;;;5046124;28;20199;-66
2023/05/19 08:14:13;;;;;;;6.70;2.78;;;25.40;99.90;;;;;;5046206;28;20782;-71
2023/05/19 08:16:41;;;;;;;5.68;2.03;;;25.80;99.90;;;;;;5045202;28;20215;-71
2023/05/19 08:19:08;;;;;;;6.90;2.67;;;26.20;99.90;;;;;;5043257;28;20684;-69
2023/05/19 08:21:35;;;;;;;7.82;2.58;;;26.60;99.90;;;;;;5032299;28;20253;-69
2023/05/19 08:24:03;;;;;;;5.57;2.85;;;26.80;99.90;;;;;;5044473;28;20634;-72
2023/05/19 08:26:31;;;;;;;9.32;2.40;;;26.60;99.90;;;;;;5025187;28;20228;-70
2023/05/19 08:28:57;;;;;;;6.78;2.40;;;26.60;99.90;;;;;;5027961;28;20225;-68
2023/05/19 08:31:25;;;;;;;4.50;2.38;;;27.30;99.90;;;;;;5027174;28;20192;-71
2023/05/19 08:33:52;;;;;;;7.22;2.10;;;26.80;99.90;;;;;;5044220;28;20274;-70
2023/05/19 08:36:20;;;;;;;5.88;2.10;;;26.60;99.90;;;;;;5046474;28;20206;-71
2023/05/19 08:38:47;;;;;;;4.78;2.05;;;26.60;99.90;;;;;;5045196;28;20196;-70
2023/05/19 08:41:15;;;;;;;4.85;2.13;;;26.30;99.90;;;;;;5043585;28;20195;-70
2023/05/19 08:43:44;;;;;;;4.10;1.98;;;26.10;99.90;;;;;;5028318;28;20188;-71
2023/05/19 08:46:15;;;;;;;3.80;1.75;;;25.80;99.90;;;;;;5046309;28;20677;-70
2023/05/19 08:48:44;;;;;;;3.78;2.20;;;26.30;99.90;;;;;;5038940;28;20732;-69
2023/05/19 08:51:33;;;;;;;5.55;1.98;;;25.50;99.90;;;;;;5026461;28;20192;-70
2023/05/19 08:54:17;;;;;;;4.70;2.05;;;26.10;99.90;;;;;;5039559;28;20195;-71
2023/05/19 08:56:45;;;;;;;7.22;2.38;;;26.20;99.90;;;;;;5039839;28;20208;-72
2023/05/19 08:59:14;;;;;;;7.88;2.70;;;26.50;99.90;;;;;;5046262;28;20187;-66
2023/05/19 09:01:45;;;;;;;5.82;1.98;;;26.70;99.90;;;;;;5037419;28;20811;-70
2023/05/19 09:04:12;;;;;;;5.43;2.08;;;27.20;99.90;;;;;;5035852;28;20187;-69
2023/05/19 09:06:41;;;;;;;5.53;2.38;;;26.10;99.90;;;;;;5044419;28;20266;-70
2023/05/19 09:09:08;;;;;;;6.63;2.33;;;26.80;99.90;;;;;;5028716;28;20231;-63
2023/05/19 09:11:36;;;;;;;6.97;2.72;;;26.40;99.90;;;;;;5045880;28;20215;-65
2023/05/19 09:14:04;;;;;;;8.45;2.55;;;26.00;99.90;;;;;;5035244;28;20668;-65
2023/05/19 09:16:32;;;;;;;4.00;1.83;;;25.20;99.90;;;;;;5042962;28;20192;-63
2023/05/19 09:19:00;;;;;;;4.10;2.25;;;26.00;99.90;;;;;;5020333;28;20222;-62
2023/05/19 09:21:29;;;;;;;6.50;2.17;;;24.90;99.90;;;;;;5031398;28;20588;-63
2023/05/19 09:23:58;;;;;;;4.93;2.58;;;24.70;99.90;;;;;;5042860;28;20192;-64
2023/05/19 09:26:36;;;;;;;4.47;2.20;;;26.00;99.90;;;;;;5045219;28;20924;-63
2023/05/19 09:29:18;;;;;;;5.75;2.53;;;24.90;99.90;;;;;;5026380;28;20264;-64
2023/05/19 09:31:49;;;;;;;4.65;2.13;;;26.00;99.90;;;;;;5016015;28;20192;-63
2023/05/19 09:34:17;;;;;;;6.88;1.85;;;25.20;99.90;;;;;;5047402;28;20202;-63
2023/05/19 09:36:48;;;;;;;4.32;1.90;;;24.50;99.90;;;;;;5043084;28;20261;-65
2023/05/19 09:39:16;;;;;;;6.38;2.38;;;25.50;99.90;;;;;;5028072;28;20821;-63
2023/05/19 09:41:44;;;;;;;5.43;2.58;;;26.90;99.90;;;;;;5052676;28;20305;-62
2023/05/19 09:44:28;;;;;;;5.75;2.25;;;27.00;99.90;;;;;;5044880;28;20214;-62
2023/05/19 09:46:57;;;;;;;5.78;2.22;;;26.90;99.90;;;;;;5027997;28;20677;-61
2023/05/19 09:49:28;;;;;;;6.57;2.47;;;27.40;99.90;;;;;;5045567;28;20204;-62
2023/05/19 09:51:57;;;;;;;3.97;2.15;;;28.60;99.90;;;;;;5047266;28;20204;-62
2023/05/19 09:54:27;;;;;;;8.32;2.15;;;27.20;99.90;;;;;;5026962;28;20211;-62
2023/05/19 09:56:59;;;;;;;5.43;1.90;;;25.60;99.90;;;;;;5045463;28;20253;-64
2023/05/19 09:59:27;;;;;;;6.00;2.53;;;25.90;99.90;;;;;;5046099;28;20770;-64
2023/05/19 10:02:00;;;;;;;7.72;2.20;;;23.50;99.90;;;;;;5028679;28;20843;-64
2023/05/19 10:04:28;;;;;;;5.95;2.28;;;24.20;99.90;;;;;;5042448;28;20732;-65
2023/05/19 10:07:00;;;;;;;6.13;2.33;;;23.60;99.90;;;;;;5010985;28;20307;-64
2023/05/19 10:09:28;;;;;;;5.32;2.50;;;22.70;99.90;;;;;;5022931;28;20215;-63
2023/05/19 10:11:57;;;;;;;5.72;2.13;;;21.90;99.90;;;;;;5039653;28;20294;-65
2023/05/19 10:14:26;;;;;;;5.03;2.50;;;23.80;99.90;;;;;;5041950;28;20216;-62
2023/05/19 10:16:57;;;;;;;4.97;2.40;;;25.20;99.90;;;;;;5032530;28;20222;-63
2023/05/19 10:19:28;;;;;;;5.88;2.72;;;25.20;99.90;;;;;;5044958;28;20616;-64
2023/05/19 10:21:55;;;;;;;5.10;2.38;;;25.20;99.90;;;;;;5014996;28;20742;-64
2023/05/19 10:24:23;;;;;;;6.03;2.58;;;24.30;99.90;;;;;;5049156;28;20226;-64
2023/05/19 10:27:11;;;;;;;8.65;2.55;;;24.10;99.90;;;;;;5049588;28;20195;-63
2023/05/19 10:29:43;;;;;;;4.80;2.17;;;22.00;99.90;;;;;;5032622;28;20200;-65
2023/05/19 10:32:16;;;;;;;6.85;2.13;;;22.30;99.90;;;;;;5052952;28;20799;-64
2023/05/19 10:34:56;;;;;;;4.60;2.22;;;24.00;99.90;;;;;;5036624;28;20190;-64
2023/05/19 10:37:23;;;;;;;6.30;2.28;;;24.30;99.90;;;;;;5046531;28;20215;-65
2023/05/19 10:39:51;;;;;;;4.63;2.30;;;23.20;99.90;;;;;;5047494;28;20661;-64
2023/05/19 10:42:36;;;;;;;5.40;2.42;;;23.00;99.90;;;;;;5033173;28;20222;-63
2023/05/19 10:45:16;;;;;;;6.53;2.10;;;23.70;99.90;;;;;;5048460;28;20191;-64
2023/05/19 10:47:44;;;;;;;6.30;2.33;;;25.20;99.90;;;;;;5037827;28;20199;-62
2023/05/19 10:50:11;;;;;;;6.00;2.53;;;24.30;99.90;;;;;;5025628;28;20251;-64
2023/05/19 10:52:39;;;;;;;4.45;2.38;;;23.40;99.90;;;;;;5036438;28;20184;-63
2023/05/19 10:55:07;;;;;;;5.60;2.20;;;23.80;99.90;;;;;;5048096;28;20199;-64
2023/05/19 10:57:35;;;;;;;6.88;2.25;;;25.20;99.90;;;;;;5048944;28;20184;-63
2023/05/19 11:00:24;;;;;;;7.03;2.25;;;25.40;99.90;;;;;;5020345;28;20220;-61
2023/05/19 11:02:55;;;;;;;8.00;1.95;;;25.10;99.90;;;;;;5031958;28;20709;-64
2023/05/19 11:05:28;;;;;;;8.02;2.47;;;24.70;99.90;;;;;;5046024;28;20206;-64
2023/05/19 11:08:07;;;;;;;3.42;1.98;;;24.90;99.90;;;;;;5030065;28;20188;-64
2023/05/19 11:10:34;;;;;;;5.30;2.10;;;24.60;99.90;;;;;;5036354;28;20257;-64
2023/05/19 11:13:03;;;;;;;5.75;1.98;;;22.90;99.90;;;;;;5024777;28;20203;-63
2023/05/19 11:15:38;;;;;;;4.97;1.95;;;23.80;99.90;;;;;;5026860;28;20668;-62
2023/05/19 11:18:05;;;;;;;3.10;1.83;;;24.50;99.90;;;;;;5030071;28;20195;-62
2023/05/19 11:20:37;;;;;;;6.60;2.35;;;24.40;99.90;;;;;;5050060;28;20191;-63
2023/05/19 11:23:18;;;;;;;4.32;1.80;;;24.40;99.90;;;;;;5026472;28;20241;-62
2023/05/19 11:25:46;;;;;;;3.78;1.70;;;23.70;99.90;;;;;;5026079;28;20183;-63
2023/05/19 11:28:24;;;;;;;4.18;1.88;;;23.00;99.90;;;;;;5031912;28;20295;-64
2023/05/19 11:30:56;;;;;;;7.75;2.58;;;23.80;99.90;;;;;;5002625;28;20257;-62
2023/05/19 11:33:28;;;;;;;3.28;1.90;;;25.30;99.90;;;;;;5046903;28;20213;-66
2023/05/19 11:35:57;;;;;;;4.15;1.85;;;25.80;99.90;;;;;;5024261;28;20214;-65
2023/05/19 11:38:26;;;;;;;8.02;1.90;;;24.90;99.90;;;;;;5044917;28;20645;-64
2023/05/19 11:40:55;;;;;;;4.40;1.60;;;23.90;99.90;;;;;;5026912;28;20198;-63
2023/05/19 11:43:23;;;;;;;3.38;2.05;;;24.20;99.90;;;;;;5048165;28;20206;-64
2023/05/19 11:45:52;;;;;;;5.40;2.03;;;24.00;99.90;;;;;;5026868;28;20724;-66
2023/05/19 11:48:23;;;;;;;4.72;2.42;;;24.20;99.90;;;;;;5045360;28;20204;-64
2023/05/19 11:50:51;;;;;;;6.05;2.17;;;24.40;99.90;;;;;;5027014;28;20219;-66
2023/05/19 11:53:18;;;;;;;4.20;2.22;;;24.70;99.90;;;;;;5026395;28;20183;-65
2023/05/19 11:55:46;;;;;;;5.07;2.13;;;23.70;99.90;;;;;;5043837;28;20192;-64
2023/05/19 11:58:15;;;;;;;6.50;2.00;;;23.70;99.90;;;;;;5026337;28;20203;-66
2023/05/19 12:00:47;;;;;;;3.50;1.63;;;23.40;99.90;;;;;;5048730;28;20199;-63
2023/05/19 12:03:14;;;;;;;2.40;1.80;;;24.40;99.90;;;;;;5014404;28;20232;-65
2023/05/19 12:05:47;;;;;;;5.90;1.98;;;24.60;99.90;;;;;;5019263;28;20204;-64
2023/05/19 12:08:20;;;;;;;2.35;1.73;;;24.90;99.90;;;;;;5023333;28;20192;-64
2023/05/19 12:10:50;;;;;;;3.25;1.92;;;24.30;99.90;;;;;;5024084;28;20208;-67
2023/05/19 12:13:19;;;;;;;5.97;2.00;;;23.40;99.90;;;;;;5022944;28;20200;-65
2023/05/19 12:15:46;;;;;;;4.70;1.73;;;22.80;99.90;;;;;;5026641;28;20184;-66
2023/05/19 12:18:14;;;;;;;3.13;1.77;;;23.20;99.90;;;;;;5009759;28;20199;-64
2023/05/19 12:20:41;;;;;;;4.53;2.33;;;23.40;99.90;;;;;;5034277;28;20199;-65
2023/05/19 12:23:09;;;;;;;3.97;2.00;;;23.80;99.90;;;;;;5013047;28;20292;-64
2023/05/19 12:25:37;;;;;;;3.50;2.00;;;22.90;99.90;;;;;;5022737;28;20680;-66
2023/05/19 12:28:04;;;;;;;4.90;2.20;;;22.30;99.90;;;;;;5032029;28;20422;-67
2023/05/19 12:30:32;;;;;;;7.03;2.55;;;22.10;99.90;;;;;;5015425;28;20220;-64
2023/05/19 12:33:01;;;;;;;3.88;2.30;;;21.50;99.90;;;;;;5010874;28;20196;-64
2023/05/19 12:35:34;;;;;;;8.55;2.38;;;21.80;99.90;;;;;;5014554;28;20191;-65
2023/05/19 12:38:13;;;;;;;3.92;2.30;;;22.50;99.90;;;;;;5024267;28;20215;-65
2023/05/19 12:40:41;;;;;;;4.10;2.05;;;21.90;99.90;;;;;;5036031;28;20212;-64
2023/05/19 12:43:17;;;;;;;5.95;2.20;;;21.40;99.90;;;;;;5007819;28;20271;-65
2023/05/19 12:45:45;;;;;;;5.22;2.00;;;21.00;99.90;;;;;;5006802;28;20234;-65
2023/05/19 12:48:14;;;;;;;8.75;2.50;;;21.20;99.90;;;;;;5029544;28;20239;-66
2023/05/19 12:50:43;;;;;;;8.68;2.30;;;21.10;99.90;;;;;;5035654;28;20199;-63
2023/05/19 12:53:11;;;;;;;5.43;2.38;;;21.50;99.90;;;;;;5009436;28;20780;-64
2023/05/19 12:55:41;;;;;;;3.10;1.88;;;21.70;99.90;;;;;;4998173;28;20854;-66
2023/05/19 12:58:10;;;;;;;5.20;2.13;;;21.50;99.90;;;;;;5024469;28;20204;-67
2023/05/19 13:00:45;;;;;;;4.05;2.05;;;21.00;99.90;;;;;;5038173;28;20202;-65
2023/05/19 13:03:15;;;;;;;8.52;1.90;;;21.10;99.90;;;;;;5043188;28;20711;-64
2023/05/19 13:05:45;;;;;;;10.60;2.80;;;20.90;99.90;;;;;;5034227;28;20686;-65